createdAt,value
2023-02-16T00:00:59.262Z,6.23
2023-02-16T00:20:59.219Z,6.23
2023-02-16T00:40:58.949Z,6.23
2023-02-16T01:00:59.247Z,6.22
2023-02-16T01:40:59.231Z,6.21
2023-02-16T02:00:59.213Z,6.21
2023-02-16T02:20:59.246Z,6.2
2023-02-16T02:40:59.229Z,6.2
2023-02-16T03:00:59.313Z,6.19
2023-02-16T03:20:59.235Z,6.18
2023-02-16T03:40:59.238Z,6.18
2023-02-16T04:00:59.264Z,6.17
2023-02-16T04:20:59.279Z,6.17
2023-02-16T04:40:59.244Z,6.17
2023-02-16T05:00:59.255Z,6.16
2023-02-16T05:20:59.277Z,6.16
2023-02-16T05:40:59.251Z,6.15
2023-02-16T06:00:59.299Z,6.14
2023-02-16T06:20:59.275Z,6.13
2023-02-16T06:40:59.251Z,6.12
2023-02-16T07:20:59.255Z,6.09
2023-02-16T07:40:59.247Z,6.08
2023-02-16T08:00:59.260Z,6.07
2023-02-16T08:21:04.056Z,6.06
2023-02-16T08:40:59.249Z,6.05
2023-02-16T09:00:59.260Z,6.05
2023-02-16T09:20:59.249Z,6.04
2023-02-16T09:40:59.156Z,6.02
2023-02-16T10:00:59.206Z,6.01
2023-02-16T10:20:59.149Z,6
2023-02-16T10:40:59.145Z,5.99
2023-02-16T11:00:59.086Z,5.98
2023-02-16T11:20:59.074Z,5.98
2023-02-16T11:40:59.033Z,5.97
2023-02-16T12:00:58.743Z,5.97
2023-02-16T12:20:58.996Z,5.97
2023-02-16T12:40:58.962Z,5.97
2023-02-16T13:00:58.990Z,5.97
2023-02-16T13:20:58.928Z,5.97
2023-02-16T13:40:58.911Z,5.97
2023-02-16T14:00:59.017Z,5.98
2023-02-16T14:20:58.856Z,5.99
2023-02-16T14:40:58.868Z,6
2023-02-16T15:00:58.835Z,6.01
2023-02-16T15:20:58.845Z,6.02
2023-02-16T15:40:58.817Z,6.03
2023-02-16T16:00:58.763Z,6.05
2023-02-16T16:20:58.704Z,6.05
2023-02-16T16:40:58.724Z,6.06
2023-02-16T17:00:58.714Z,6.07
2023-02-16T17:20:58.691Z,6.08
2023-02-16T17:40:58.642Z,6.09
2023-02-16T18:00:58.630Z,6.11
2023-02-16T18:20:58.642Z,6.13
2023-02-16T18:40:58.792Z,6.14
2023-02-16T19:20:58.281Z,6.16
2023-02-16T19:40:58.597Z,6.17
2023-02-16T20:00:58.509Z,6.17
2023-02-16T20:20:58.520Z,6.18
2023-02-16T20:40:58.479Z,6.19
2023-02-16T21:00:58.497Z,6.2
2023-02-16T21:20:58.429Z,6.22
2023-02-16T21:40:58.417Z,6.24
2023-02-16T22:00:58.396Z,6.25
2023-02-16T22:20:58.374Z,6.26
2023-02-16T22:40:58.399Z,6.27
2023-02-16T23:20:58.354Z,6.28
2023-02-16T23:40:58.327Z,6.29
